createdAt,value
2023-04-15T00:01:51.876Z,99221.59
2023-04-15T00:04:18.507Z,99226.98
2023-04-15T00:06:52.944Z,99224.72
2023-04-15T00:09:20.288Z,99222.98
2023-04-15T00:11:47.158Z,99228.02
2023-04-15T00:14:13.838Z,99224.77
2023-04-15T00:16:40.334Z,99224.06
2023-04-15T00:19:06.883Z,99223.88
2023-04-15T00:21:33.440Z,99224.58
2023-04-15T00:23:59.938Z,99221.09
2023-04-15T00:26:26.408Z,99226.31
2023-04-15T00:28:52.868Z,99224.39
2023-04-15T00:31:19.396Z,99225.96
2023-04-15T00:33:45.942Z,99223.70
2023-04-15T00:36:12.465Z,99216.40
2023-04-15T00:38:38.963Z,99215.17
2023-04-15T00:41:05.459Z,99217.08
2023-04-15T00:43:31.970Z,99220.39
2023-04-15T00:45:59.502Z,99214.30
2023-04-15T00:48:26.689Z,99214.11
2023-04-15T00:50:53.148Z,99214.46
2023-04-15T00:53:19.632Z,99211.33
2023-04-15T00:55:46.083Z,99213.23
2023-04-15T00:58:12.632Z,99212.20
2023-04-15T01:00:39.115Z,99207.16
2023-04-15T01:03:05.800Z,99211.15
2023-04-15T01:05:33.179Z,99207.48
2023-04-15T01:07:59.867Z,99208.01
2023-04-15T01:10:26.382Z,99202.44
2023-04-15T01:12:52.885Z,99195.66
2023-04-15T01:15:20.380Z,99200.35
2023-04-15T01:17:47.080Z,99201.41
2023-04-15T01:20:13.648Z,99200.54
2023-04-15T01:22:40.818Z,99203.30
2023-04-15T01:25:11.652Z,99199.84
2023-04-15T01:27:40.244Z,99200.52
2023-04-15T01:30:08.173Z,99202.25
2023-04-15T01:32:34.796Z,99206.24
2023-04-15T01:35:01.326Z,99205.38
2023-04-15T01:37:27.876Z,99206.77
2023-04-15T01:39:54.358Z,99206.58
2023-04-15T01:42:21.846Z,99210.23
2023-04-15T01:44:48.321Z,99210.92
2023-04-15T01:47:14.764Z,99214.59
2023-04-15T01:49:41.260Z,99214.75
2023-04-15T01:52:07.718Z,99213.35
2023-04-15T01:54:34.229Z,99210.39
2023-04-15T01:57:00.726Z,99214.02
2023-04-15T01:59:27.205Z,99212.80
2023-04-15T02:01:53.732Z,99213.31
2023-04-15T02:04:20.214Z,99210.69
2023-04-15T02:06:46.665Z,99216.09
2023-04-15T02:09:13.150Z,99217.81
2023-04-15T02:11:39.638Z,99221.81
2023-04-15T02:14:06.082Z,99213.64
2023-04-15T02:16:33.312Z,99217.64
2023-04-15T02:19:00.654Z,99216.77
2023-04-15T02:21:27.602Z,99216.41
2023-04-15T02:23:54.250Z,99220.92
2023-04-15T02:26:20.794Z,99222.49
2023-04-15T02:28:47.405Z,99227.71
2023-04-15T02:31:13.901Z,99234.16
2023-04-15T02:33:40.434Z,99235.03
2023-04-15T02:36:07.103Z,99231.55
2023-04-15T02:38:33.720Z,99232.77
2023-04-15T02:41:00.216Z,99227.38
2023-04-15T02:43:26.718Z,99229.27
2023-04-15T02:45:53.152Z,99234.66
2023-04-15T02:48:19.721Z,99233.09
2023-04-15T02:50:47.050Z,99230.81
2023-04-15T02:53:13.847Z,99226.64
2023-04-15T02:55:40.598Z,99226.63
2023-04-15T02:58:07.143Z,99224.70
2023-04-15T03:00:33.751Z,99224.52
2023-04-15T03:03:05.407Z,99227.66
2023-04-15T03:05:32.234Z,99225.92
2023-04-15T03:07:58.712Z,99222.96
2023-04-15T03:10:25.197Z,99217.91
2023-04-15T03:12:51.693Z,99214.79
2023-04-15T03:15:18.179Z,99209.20
2023-04-15T03:17:44.674Z,99209.73
2023-04-15T03:20:11.273Z,99208.15
2023-04-15T03:22:37.815Z,99206.24
2023-04-15T03:25:04.624Z,99208.85
2023-04-15T03:27:31.086Z,99204.33
2023-04-15T03:29:57.556Z,99209.56
2023-04-15T03:32:24.454Z,99208.86
2023-04-15T03:34:50.967Z,99214.61
2023-04-15T03:37:17.401Z,99214.81
2023-04-15T03:39:43.846Z,99217.23
2023-04-15T03:42:10.280Z,99217.08
2023-04-15T03:44:36.786Z,99218.29
2023-04-15T03:47:03.380Z,99221.06
2023-04-15T03:49:29.898Z,99217.23
2023-04-15T03:51:56.358Z,99218.80
2023-04-15T03:54:22.908Z,99215.14
2023-04-15T03:56:49.390Z,99216.18
2023-04-15T03:59:15.875Z,99219.33
2023-04-15T04:01:42.374Z,99216.38
2023-04-15T04:04:08.993Z,99216.02
2023-04-15T04:06:35.519Z,99214.98
2023-04-15T04:09:02.186Z,99214.63
2023-04-15T04:11:28.933Z,99212.52
2023-04-15T04:13:55.405Z,99214.10
2023-04-15T04:16:22.097Z,99218.46
2023-04-15T04:18:48.662Z,99214.45
2023-04-15T04:21:15.242Z,99217.23
2023-04-15T04:23:41.746Z,99220.88
2023-04-15T04:26:08.255Z,99215.98
2023-04-15T04:28:34.750Z,99213.90
2023-04-15T04:31:01.268Z,99218.59
2023-04-15T04:33:27.783Z,99216.30
2023-04-15T04:35:54.249Z,99214.19
2023-04-15T04:38:20.675Z,99214.70
2023-04-15T04:40:47.432Z,99209.29
2023-04-15T04:43:13.944Z,99207.52
2023-04-15T04:45:40.529Z,99208.21
2023-04-15T04:48:07.177Z,99203.83
2023-04-15T04:50:34.453Z,99207.13
2023-04-15T04:53:01.454Z,99211.79
2023-04-15T04:55:28.287Z,99214.55
2023-04-15T04:57:54.848Z,99215.41
2023-04-15T05:00:21.409Z,99213.14
2023-04-15T05:02:48.211Z,99210.70
2023-04-15T05:05:15.021Z,99214.00
2023-04-15T05:07:41.638Z,99217.14
2023-04-15T05:10:08.679Z,99215.96
2023-04-15T05:12:36.001Z,99216.52
2023-04-15T05:15:02.509Z,99216.17
2023-04-15T05:17:28.995Z,99224.55
2023-04-15T05:19:55.517Z,99224.71
2023-04-15T05:22:22.019Z,99227.99
2023-04-15T05:24:48.499Z,99227.08
2023-04-15T05:27:14.958Z,99226.00
2023-04-15T05:29:41.442Z,99226.27
2023-04-15T05:32:08.062Z,99226.34
2023-04-15T05:34:34.663Z,99229.89
2023-04-15T05:37:01.206Z,99229.77
2023-04-15T05:39:27.854Z,99232.08
2023-04-15T05:41:54.416Z,99236.48
2023-04-15T05:44:20.898Z,99238.31
2023-04-15T05:46:47.366Z,99240.87
2023-04-15T05:49:13.847Z,99237.66
2023-04-15T05:51:40.298Z,99238.67
2023-04-15T05:54:07.230Z,99238.35
2023-04-15T05:56:33.766Z,99239.39
2023-04-15T05:59:00.382Z,99238.60
2023-04-15T06:01:27.552Z,99240.41
2023-04-15T06:03:54.185Z,99243.70
2023-04-15T06:06:20.741Z,99247.33
2023-04-15T06:08:47.229Z,99243.77
2023-04-15T06:11:13.795Z,99248.98
2023-04-15T06:13:40.297Z,99251.42
2023-04-15T06:16:07.142Z,99250.77
2023-04-15T06:18:33.667Z,99249.35
2023-04-15T06:21:00.227Z,99247.32
2023-04-15T06:23:27.996Z,99250.02
2023-04-15T06:25:54.591Z,99255.38
2023-04-15T06:28:21.092Z,99255.86
2023-04-15T06:30:47.646Z,99262.64
2023-04-15T06:33:14.125Z,99262.15
2023-04-15T06:35:40.606Z,99266.36
2023-04-15T06:38:07.058Z,99265.73
2023-04-15T06:40:33.718Z,99264.75
2023-04-15T06:43:00.379Z,99271.00
2023-04-15T06:45:26.859Z,99273.59
2023-04-15T06:47:53.458Z,99275.25
2023-04-15T06:50:19.979Z,99275.84
2023-04-15T06:52:46.485Z,99278.20
2023-04-15T06:55:12.956Z,99281.20
2023-04-15T06:57:39.394Z,99280.44
2023-04-15T07:00:06.541Z,99280.30
2023-04-15T07:02:33.425Z,99284.64
2023-04-15T07:05:00.041Z,99283.70
2023-04-15T07:07:26.507Z,99286.90
2023-04-15T07:09:52.959Z,99291.00
2023-04-15T07:12:20.161Z,99288.30
2023-04-15T07:14:46.689Z,99288.40
2023-04-15T07:17:13.455Z,99279.54
2023-04-15T07:19:39.966Z,99282.29
2023-04-15T07:22:06.495Z,99285.55
2023-04-15T07:24:33.203Z,99284.42
2023-04-15T07:27:01.105Z,99288.61
2023-04-15T07:29:28.064Z,99288.83
2023-04-15T07:31:54.648Z,99282.52
2023-04-15T07:34:21.183Z,99282.70
2023-04-15T07:36:47.904Z,99284.52
2023-04-15T07:39:14.393Z,99282.91
2023-04-15T07:41:40.994Z,99283.33
2023-04-15T07:44:07.523Z,99286.81
2023-04-15T07:46:34.201Z,99286.34
2023-04-15T07:49:01.096Z,99288.79
2023-04-15T07:51:27.804Z,99291.61
2023-04-15T07:53:54.262Z,99290.52
2023-04-15T07:56:20.773Z,99290.70
2023-04-15T07:58:47.256Z,99289.71
2023-04-15T08:01:13.734Z,99291.69
2023-04-15T08:03:40.429Z,99293.46
2023-04-15T08:06:07.024Z,99287.48
2023-04-15T08:08:33.554Z,99291.44
2023-04-15T08:11:00.171Z,99292.84
2023-04-15T08:13:26.719Z,99291.02
2023-04-15T08:16:22.195Z,99296.50
2023-04-15T08:18:50.007Z,99294.55
2023-04-15T08:21:17.945Z,99295.97
2023-04-15T08:23:45.180Z,99296.19
2023-04-15T08:26:12.198Z,99300.80
2023-04-15T08:28:40.552Z,99299.96
2023-04-15T08:31:07.568Z,99302.58
2023-04-15T08:33:34.067Z,99301.46
2023-04-15T08:36:00.604Z,99304.50
2023-04-15T08:38:27.234Z,99304.73
2023-04-15T08:40:53.723Z,99307.40
2023-04-15T08:43:23.508Z,99306.00
2023-04-15T08:45:51.030Z,99308.16
2023-04-15T08:48:18.039Z,99305.98
2023-04-15T08:50:46.573Z,99311.29
2023-04-15T08:53:13.623Z,99311.73
2023-04-15T08:55:51.823Z,99314.30
2023-04-15T08:58:19.401Z,99315.59
2023-04-15T09:00:45.971Z,99322.25
2023-04-15T09:03:12.697Z,99318.27
2023-04-15T09:05:39.240Z,99319.69
2023-04-15T09:08:05.829Z,99317.17
2023-04-15T09:10:34.479Z,99318.11
2023-04-15T09:13:01.787Z,99320.86
2023-04-15T09:15:28.479Z,99314.95
2023-04-15T09:17:55.485Z,99311.15
2023-04-15T09:20:22.871Z,99314.35
2023-04-15T09:22:50.251Z,99318.35
2023-04-15T09:25:22.709Z,99315.73
2023-04-15T09:27:53.205Z,99318.84
2023-04-15T09:30:19.686Z,99318.16
2023-04-15T09:32:57.812Z,99314.79
2023-04-15T09:35:26.486Z,99316.34
2023-04-15T09:37:54.700Z,99312.63
2023-04-15T09:40:39.450Z,99313.42
2023-04-15T09:43:07.697Z,99314.77
2023-04-15T09:45:35.491Z,99315.48
2023-04-15T09:48:34.472Z,99317.42
2023-04-15T09:51:01.889Z,99316.88
2023-04-15T09:53:29.823Z,99323.05
2023-04-15T09:56:00.472Z,99326.52
2023-04-15T09:58:28.904Z,99319.59
2023-04-15T10:00:57.425Z,99327.61
2023-04-15T10:03:31.899Z,99324.21
2023-04-15T10:06:01.399Z,99327.63
2023-04-15T10:08:30.274Z,99323.95
2023-04-15T10:10:57.509Z,99323.76
2023-04-15T10:13:25.967Z,99326.85
2023-04-15T10:15:59.259Z,99325.58
2023-04-15T10:18:28.285Z,99337.12
2023-04-15T10:20:55.336Z,99336.47
2023-04-15T10:23:23.316Z,99335.06
2023-04-15T10:25:52.399Z,99333.79
2023-04-15T10:28:20.510Z,99341.13
2023-04-15T10:30:47.999Z,99340.49
2023-04-15T10:33:15.410Z,99341.49
2023-04-15T10:35:42.895Z,99341.17
2023-04-15T10:38:45.405Z,99337.86
2023-04-15T10:41:12.558Z,99329.80
2023-04-15T10:43:39.195Z,99323.92
2023-04-15T10:46:06.648Z,99329.92
2023-04-15T10:48:33.336Z,99332.14
2023-04-15T10:51:03.071Z,99329.77
2023-04-15T10:53:29.972Z,99332.58
2023-04-15T10:55:57.910Z,99340.41
2023-04-15T10:58:25.588Z,99343.83
2023-04-15T11:00:53.717Z,99354.45
2023-04-15T11:03:40.709Z,99363.48
2023-04-15T11:06:07.783Z,99362.88
2023-04-15T11:08:56.142Z,99369.00
2023-04-15T11:11:23.154Z,99372.10
2023-04-15T11:13:52.531Z,99372.61
2023-04-15T11:16:19.009Z,99375.02
2023-04-15T11:18:55.482Z,99374.19
2023-04-15T11:21:25.263Z,99376.12
2023-04-15T11:23:51.857Z,99370.61
2023-04-15T11:26:18.370Z,99368.13
2023-04-15T11:28:46.173Z,99371.80
2023-04-15T11:31:14.822Z,99367.20
2023-04-15T11:33:58.852Z,99367.16
2023-04-15T11:36:29.934Z,99360.89
2023-04-15T11:38:58.674Z,99358.66
2023-04-15T11:41:25.176Z,99357.95
2023-04-15T11:43:52.761Z,99363.20
2023-04-15T11:46:19.671Z,99361.58
2023-04-15T11:48:47.462Z,99365.49
2023-04-15T11:51:14.566Z,99374.86
2023-04-15T11:53:47.902Z,99368.60
2023-04-15T11:56:26.296Z,99366.04
2023-04-15T11:58:55.456Z,99368.23
2023-04-15T12:01:31.318Z,99377.98
2023-04-15T12:03:57.876Z,99379.96
2023-04-15T12:06:25.735Z,99383.44
2023-04-15T12:08:55.267Z,99380.08
2023-04-15T12:11:27.723Z,99377.00
2023-04-15T12:13:57.184Z,99378.69
2023-04-15T12:16:24.997Z,99381.73
2023-04-15T12:18:55.949Z,99380.06
2023-04-15T12:21:24.561Z,99381.09
2023-04-15T12:23:52.975Z,99375.63
2023-04-15T12:26:28.016Z,99372.49
2023-04-15T12:29:05.041Z,99376.01
2023-04-15T12:31:31.620Z,99380.84
2023-04-15T12:33:59.078Z,99388.36
2023-04-15T12:36:25.565Z,99384.27
2023-04-15T12:38:52.023Z,99389.30
2023-04-15T12:41:18.685Z,99387.30
2023-04-15T12:43:45.446Z,99389.37
2023-04-15T12:46:12.060Z,99389.04
2023-04-15T12:48:38.646Z,99388.48
2023-04-15T12:51:05.802Z,99393.86
2023-04-15T12:53:32.450Z,99397.39
2023-04-15T12:55:58.928Z,99395.56
2023-04-15T12:58:25.432Z,99397.02
2023-04-15T13:00:51.899Z,99400.48
2023-04-15T13:03:18.491Z,99401.64
2023-04-15T13:05:45.022Z,99404.17
2023-04-15T13:08:11.495Z,99405.89
2023-04-15T13:10:38.008Z,99404.73
2023-04-15T13:13:05.797Z,99406.59
2023-04-15T13:15:32.309Z,99406.13
2023-04-15T13:17:58.838Z,99404.91
2023-04-15T13:20:25.483Z,99401.98
2023-04-15T13:22:52.963Z,99410.33
2023-04-15T13:25:19.831Z,99408.77
2023-04-15T13:27:46.359Z,99407.37
2023-04-15T13:30:12.922Z,99403.58
2023-04-15T13:32:39.432Z,99409.73
2023-04-15T13:35:06.098Z,99403.34
2023-04-15T13:37:32.612Z,99408.98
2023-04-15T13:39:59.088Z,99412.15
2023-04-15T13:42:25.656Z,99412.69
2023-04-15T13:44:52.210Z,99408.85
2023-04-15T13:47:21.945Z,99415.70
2023-04-15T13:49:48.538Z,99419.13
2023-04-15T13:52:15.015Z,99418.58
2023-04-15T13:54:41.518Z,99420.16
2023-04-15T13:57:08.234Z,99419.71
2023-04-15T13:59:34.790Z,99422.17
2023-04-15T14:02:02.063Z,99423.48
2023-04-15T14:04:28.702Z,99426.20
2023-04-15T14:06:56.292Z,99425.88
2023-04-15T14:09:25.012Z,99424.11
2023-04-15T14:11:53.065Z,99426.18
2023-04-15T14:14:19.598Z,99427.08
2023-04-15T14:16:46.150Z,99425.56
2023-04-15T14:19:12.659Z,99426.05
2023-04-15T14:21:39.136Z,99432.26
2023-04-15T14:24:06.022Z,99435.81
2023-04-15T14:26:32.641Z,99442.13
2023-04-15T14:28:59.103Z,99444.90
2023-04-15T14:31:25.627Z,99447.76
2023-04-15T14:33:52.131Z,99450.98
2023-04-15T14:36:18.709Z,99456.36
2023-04-15T14:38:46.468Z,99453.63
2023-04-15T14:41:14.108Z,99456.36
2023-04-15T14:43:40.574Z,99459.61
2023-04-15T14:46:07.720Z,99462.11
2023-04-15T14:48:34.265Z,99460.89
2023-04-15T14:51:00.860Z,99461.58
2023-04-15T14:53:27.342Z,99461.75
2023-04-15T14:55:53.833Z,99466.08
2023-04-15T14:58:20.309Z,99466.58
2023-04-15T15:00:47.035Z,99467.23
2023-04-15T15:03:13.820Z,99467.41
2023-04-15T15:05:41.975Z,99460.95
2023-04-15T15:08:09.495Z,99465.17
2023-04-15T15:10:47.985Z,99465.34
2023-04-15T15:13:17.471Z,99467.77
2023-04-15T15:15:44.084Z,99471.38
2023-04-15T15:18:11.195Z,99474.84
2023-04-15T15:20:37.777Z,99479.11
2023-04-15T15:23:04.290Z,99479.25
2023-04-15T15:25:30.780Z,99485.25
2023-04-15T15:27:57.611Z,99487.84
2023-04-15T15:30:24.237Z,99489.92
2023-04-15T15:32:51.365Z,99491.84
2023-04-15T15:35:18.021Z,99494.12
2023-04-15T15:37:45.708Z,99497.91
2023-04-15T15:40:12.613Z,99502.92
2023-04-15T15:42:39.119Z,99506.13
2023-04-15T15:45:06.088Z,99509.87
2023-04-15T15:47:32.793Z,99513.80
2023-04-15T15:50:01.026Z,99512.63
2023-04-15T15:52:27.810Z,99516.39
2023-04-15T15:54:54.300Z,99516.50
2023-04-15T15:57:20.763Z,99528.30
2023-04-15T15:59:47.292Z,99533.08
2023-04-15T16:02:13.995Z,99536.44
2023-04-15T16:04:40.865Z,99542.41
2023-04-15T16:07:07.452Z,99541.90
2023-04-15T16:09:33.964Z,99541.58
2023-04-15T16:12:00.567Z,99546.54
2023-04-15T16:14:27.085Z,99546.27
2023-04-15T16:16:53.630Z,99543.55
2023-04-15T16:19:21.135Z,99544.87
2023-04-15T16:21:48.252Z,99546.33
2023-04-15T16:24:14.848Z,99550.19
2023-04-15T16:26:41.787Z,99549.85
2023-04-15T16:29:08.516Z,99549.48
2023-04-15T16:31:35.307Z,99554.05
2023-04-15T16:34:02.708Z,99553.21
2023-04-15T16:36:29.183Z,99554.09
2023-04-15T16:38:55.661Z,99552.70
2023-04-15T16:41:22.174Z,99551.35
2023-04-15T16:43:48.714Z,99547.89
2023-04-15T16:46:15.210Z,99547.73
2023-04-15T16:48:41.754Z,99546.00
2023-04-15T16:51:08.296Z,99551.10
2023-04-15T16:53:34.754Z,99558.66
2023-04-15T16:56:01.244Z,99559.39
2023-04-15T16:58:27.815Z,99564.90
2023-04-15T17:00:54.321Z,99567.80
2023-04-15T17:03:20.947Z,99570.74
2023-04-15T17:05:47.561Z,99576.79
2023-04-15T17:08:14.031Z,99579.83
2023-04-15T17:10:40.550Z,99584.10
2023-04-15T17:13:07.372Z,99591.68
2023-04-15T17:15:33.896Z,99596.61
2023-04-15T17:18:00.514Z,99598.77
2023-04-15T17:20:27.014Z,99603.36
2023-04-15T17:22:53.514Z,99608.49
2023-04-15T17:25:19.990Z,99610.98
2023-04-15T17:27:46.459Z,99614.71
2023-04-15T17:30:12.963Z,99613.37
2023-04-15T17:32:39.827Z,99619.89
2023-04-15T17:35:07.169Z,99623.08
2023-04-15T17:37:34.513Z,99618.18
2023-04-15T17:40:01.040Z,99619.58
2023-04-15T17:42:27.515Z,99623.77
2023-04-15T17:44:54.016Z,99625.17
2023-04-15T17:47:20.653Z,99627.99
2023-04-15T17:49:47.215Z,99634.13
2023-04-15T17:52:14.508Z,99634.52
2023-04-15T17:54:40.985Z,99634.52
2023-04-15T17:57:07.496Z,99635.59
2023-04-15T17:59:33.996Z,99638.79
2023-04-15T18:02:00.577Z,99644.07
2023-04-15T18:04:27.380Z,99641.98
2023-04-15T18:06:54.029Z,99647.60
2023-04-15T18:09:20.603Z,99653.23
2023-04-15T18:11:47.159Z,99661.15
2023-04-15T18:14:20.182Z,99662.38
2023-04-15T18:16:53.414Z,99666.24
2023-04-15T18:19:19.862Z,99666.22
2023-04-15T18:21:46.305Z,99663.45
2023-04-15T18:24:12.814Z,99665.04
2023-04-15T18:26:39.304Z,99667.82
2023-04-15T18:29:05.776Z,99676.59
2023-04-15T18:31:32.505Z,99678.52
2023-04-15T18:33:59.151Z,99684.13
2023-04-15T18:36:25.725Z,99690.23
2023-04-15T18:38:52.220Z,99694.96
2023-04-15T18:41:18.696Z,99703.89
2023-04-15T18:43:45.198Z,99705.46
2023-04-15T18:46:11.838Z,99709.67
2023-04-15T18:48:38.393Z,99713.88
2023-04-15T18:51:04.899Z,99716.34
2023-04-15T18:53:31.421Z,99725.10
2023-04-15T18:55:57.939Z,99727.89
2023-04-15T18:58:24.410Z,99732.97
2023-04-15T19:00:51.014Z,99737.69
2023-04-15T19:03:17.601Z,99741.55
2023-04-15T19:05:44.206Z,99745.59
2023-04-15T19:08:11.009Z,99749.27
2023-04-15T19:10:38.425Z,99753.48
2023-04-15T19:13:04.910Z,99760.13
2023-04-15T19:15:31.499Z,99763.79
2023-04-15T19:17:58.025Z,99768.89
2023-04-15T19:20:24.569Z,99772.20
2023-04-15T19:22:51.140Z,99769.25
2023-04-15T19:25:17.680Z,99772.06
2023-04-15T19:27:44.152Z,99774.68
2023-04-15T19:30:10.731Z,99778.20
2023-04-15T19:32:37.355Z,99779.06
2023-04-15T19:35:04.073Z,99780.83
2023-04-15T19:37:30.815Z,99784.50
2023-04-15T19:39:57.384Z,99790.80
2023-04-15T19:42:23.929Z,99791.52
2023-04-15T19:44:50.400Z,99794.48
2023-04-15T19:47:17.039Z,99796.06
2023-04-15T19:49:43.616Z,99797.46
2023-04-15T19:52:10.084Z,99800.09
2023-04-15T19:54:36.602Z,99801.66
2023-04-15T19:57:03.602Z,99800.09
2023-04-15T19:59:30.179Z,99803.95
2023-04-15T20:01:56.989Z,99803.77
2023-04-15T20:04:23.611Z,99806.39
2023-04-15T20:06:50.196Z,99807.80
2023-04-15T20:09:16.830Z,99812.34
2023-04-15T20:12:48.080Z,99813.91
2023-04-15T20:14:29.763Z,99813.23
2023-04-15T20:16:56.298Z,99818.48
2023-04-15T20:19:22.794Z,99819.52
2023-04-15T20:21:51.960Z,99817.77
2023-04-15T20:24:19.097Z,99819.51
2023-04-15T20:26:45.568Z,99815.83
2023-04-15T20:29:12.072Z,99812.69
2023-04-15T20:31:38.592Z,99807.45
2023-04-15T20:34:05.158Z,99813.04
2023-04-15T20:36:31.718Z,99810.06
2023-04-15T20:38:58.171Z,99812.33
2023-04-15T20:41:24.645Z,99818.44
2023-04-15T20:43:51.143Z,99818.44
2023-04-15T20:46:21.478Z,99824.89
2023-04-15T20:48:48.591Z,99831.72
2023-04-15T20:51:15.116Z,99828.92
2023-04-15T20:53:41.632Z,99834.67
2023-04-15T20:56:08.213Z,99833.81
2023-04-15T20:58:34.678Z,99832.42
2023-04-15T21:01:01.206Z,99839.05
2023-04-15T21:03:27.988Z,99838.17
2023-04-15T21:05:54.524Z,99843.42
2023-04-15T21:08:21.068Z,99849.37
2023-04-15T21:10:47.546Z,99850.59
2023-04-15T21:13:14.076Z,99855.48
2023-04-15T21:15:40.588Z,99857.77
2023-04-15T21:18:07.089Z,99861.09
2023-04-15T21:20:33.559Z,99863.53
2023-04-15T21:23:00.023Z,99863.02
2023-04-15T21:25:26.474Z,99865.64
2023-04-15T21:27:52.960Z,99867.04
2023-04-15T21:30:19.482Z,99865.64
2023-04-15T21:32:45.938Z,99871.59
2023-04-15T21:35:12.532Z,99873.34
2023-04-15T21:37:39.010Z,99872.45
2023-04-15T21:40:06.150Z,99877.02
2023-04-15T21:42:32.609Z,99881.03
2023-04-15T21:44:59.121Z,99884.54
2023-04-15T21:47:25.706Z,99883.84
2023-04-15T21:49:52.255Z,99882.78
2023-04-15T21:52:18.809Z,99885.41
2023-04-15T21:54:45.277Z,99885.93
2023-04-15T21:57:11.782Z,99883.48
2023-04-15T21:59:38.232Z,99886.63
2023-04-15T22:02:04.843Z,99889.08
2023-04-15T22:04:31.468Z,99885.94
2023-04-15T22:06:57.942Z,99885.75
2023-04-15T22:09:24.438Z,99887.16
2023-04-15T22:11:50.869Z,99887.51
2023-04-15T22:14:17.313Z,99888.37
2023-04-15T22:16:43.836Z,99889.61
2023-04-15T22:19:10.397Z,99894.67
2023-04-15T22:21:36.856Z,99892.74
2023-04-15T22:24:38.309Z,99894.48
2023-04-15T22:26:50.060Z,99896.41
2023-04-15T22:29:16.509Z,99898.33
2023-04-15T22:31:43.007Z,99899.90
2023-04-15T22:34:09.466Z,99899.73
2023-04-15T22:36:35.914Z,99902.34
2023-04-15T22:39:02.396Z,99908.44
2023-04-15T22:41:28.930Z,99904.74
2023-04-15T22:43:55.414Z,99906.86
2023-04-15T22:46:21.968Z,99909.13
2023-04-15T22:48:48.494Z,99900.58
2023-04-15T22:51:21.140Z,99904.23
2023-04-15T22:53:47.646Z,99904.23
2023-04-15T22:56:14.111Z,99907.89
2023-04-15T22:58:40.685Z,99912.96
2023-04-15T23:01:08.025Z,99914.00
2023-04-15T23:03:40.192Z,99909.11
2023-04-15T23:06:20.960Z,99910.67
2023-04-15T23:08:47.441Z,99907.70
2023-04-15T23:11:13.955Z,99907.71
2023-04-15T23:13:40.434Z,99907.02
2023-04-15T23:16:07.490Z,99906.31
2023-04-15T23:18:34.230Z,99904.91
2023-04-15T23:21:00.741Z,99906.48
2023-04-15T23:23:27.236Z,99906.66
2023-04-15T23:25:53.692Z,99907.70
2023-04-15T23:28:20.163Z,99907.52
2023-04-15T23:30:46.630Z,99911.71
2023-04-15T23:33:13.167Z,99920.96
2023-04-15T23:35:39.651Z,99923.75
2023-04-15T23:38:06.113Z,99927.94
2023-04-15T23:40:32.615Z,99929.68
2023-04-15T23:42:59.089Z,99926.01
2023-04-15T23:45:25.623Z,99927.41
2023-04-15T23:47:52.184Z,99928.78
2023-04-15T23:50:18.810Z,99931.40
2023-04-15T23:52:45.266Z,99931.23
2023-04-15T23:55:11.797Z,99930.36
2023-04-15T23:57:38.332Z,99925.64
